createdAt,value
2022-08-09T00:00:06.336Z,27.11
2022-08-09T00:02:12.500Z,27.05
2022-08-09T00:04:33.948Z,27.02
2022-08-09T00:06:37.259Z,26.94
2022-08-09T00:08:39.492Z,26.92
2022-08-09T00:10:42.103Z,26.81
2022-08-09T00:12:44.432Z,26.74
2022-08-09T00:14:47.558Z,26.68
2022-08-09T00:16:54.545Z,26.61
2022-08-09T00:18:56.402Z,26.52
2022-08-09T00:20:58.867Z,26.46
2022-08-09T00:23:07.844Z,26.38
2022-08-09T00:25:23.593Z,26.27
2022-08-09T00:27:36.094Z,26.27
2022-08-09T00:30:10.417Z,26.23
2022-08-09T00:32:01.150Z,26.17
2022-08-09T00:34:04.609Z,26.20
2022-08-09T00:36:07.652Z,26.19
2022-08-09T00:38:12.815Z,26.14
2022-08-09T00:40:17.268Z,26.10
2022-08-09T00:44:13.140Z,26.14
2022-08-09T00:44:46.985Z,26.10
2022-08-09T00:46:56.550Z,26.10
2022-08-09T00:49:04.084Z,26.06
2022-08-09T00:51:10.368Z,26.00
2022-08-09T00:53:14.025Z,26.02
2022-08-09T00:56:03.343Z,25.97
2022-08-09T00:57:38.943Z,26.01
2022-08-09T00:59:46.846Z,26.06
2022-08-09T01:01:54.689Z,25.97
2022-08-09T01:04:04.833Z,25.93
2022-08-09T01:06:53.381Z,25.88
2022-08-09T01:08:58.320Z,25.87
2022-08-09T01:11:28.878Z,25.80
2022-08-09T01:13:58.962Z,25.83
2022-08-09T01:16:04.916Z,25.88
2022-08-09T01:18:14.369Z,25.84
2022-08-09T01:20:35.135Z,25.78
2022-08-09T01:22:55.986Z,25.79
2022-08-09T01:25:28.410Z,25.70
2022-08-09T01:27:34.113Z,25.75
2022-08-09T01:29:55.507Z,25.78
2022-08-09T01:32:31.624Z,25.77
2022-08-09T01:34:27.309Z,25.78
2022-08-09T01:36:32.006Z,25.78
2022-08-09T01:38:38.355Z,25.84
2022-08-09T01:40:45.193Z,25.90
2022-08-09T01:42:56.886Z,25.90
2022-08-09T01:45:00.578Z,25.88
2022-08-09T01:47:04.407Z,25.81
2022-08-09T01:49:12.743Z,25.69
2022-08-09T01:51:22.534Z,25.69
2022-08-09T01:53:29.242Z,25.67
2022-08-09T01:55:43.779Z,25.67
2022-08-09T01:57:50.806Z,25.55
2022-08-09T02:00:09.087Z,25.50
2022-08-09T02:02:31.061Z,25.45
2022-08-09T02:04:34.428Z,25.36
2022-08-09T02:07:02.012Z,25.28
2022-08-09T02:09:05.454Z,25.39
2022-08-09T02:11:16.761Z,25.45
2022-08-09T02:13:26.312Z,25.44
2022-08-09T02:15:49.511Z,25.52
2022-08-09T02:18:09.321Z,25.57
2022-08-09T02:20:25.131Z,25.52
2022-08-09T02:22:42.972Z,25.55
2022-08-09T02:24:53.722Z,25.58
2022-08-09T02:27:01.010Z,25.55
2022-08-09T02:29:12.566Z,25.54
2022-08-09T02:31:26.018Z,25.43
2022-08-09T02:33:58.212Z,25.32
2022-08-09T02:36:03.467Z,25.12
2022-08-09T02:38:09.688Z,24.99
2022-08-09T02:40:24.728Z,25.05
2022-08-09T02:42:37.191Z,25.10
2022-08-09T02:44:48.816Z,25.07
2022-08-09T02:46:53.743Z,24.99
2022-08-09T02:49:01.109Z,25.01
2022-08-09T02:51:09.246Z,25.04
2022-08-09T02:53:26.307Z,25.12
2022-08-09T02:55:46.928Z,25.15
2022-08-09T02:58:00.191Z,25.12
2022-08-09T03:00:25.745Z,25.15
2022-08-09T03:02:29.447Z,25.12
2022-08-09T03:04:36.540Z,25.15
2022-08-09T03:06:42.179Z,25.15
2022-08-09T03:08:49.364Z,25.18
2022-08-09T03:10:54.497Z,25.13
2022-08-09T03:12:58.023Z,25.06
2022-08-09T03:15:01.503Z,25.11
2022-08-09T03:17:05.581Z,25.09
2022-08-09T03:19:14.394Z,25.10
2022-08-09T03:21:36.436Z,25.08
2022-08-09T03:24:03.964Z,25.08
2022-08-09T03:26:06.917Z,25.05
2022-08-09T03:28:11.441Z,25.07
2022-08-09T03:30:30.083Z,25.07
2022-08-09T03:32:37.397Z,25.02
2022-08-09T03:34:40.323Z,25.04
2022-08-09T03:36:43.883Z,25.04
2022-08-09T03:39:00.353Z,25.07
2022-08-09T03:41:02.827Z,25.05
2022-08-09T03:43:06.162Z,25.03
2022-08-09T03:45:08.564Z,24.98
2022-08-09T03:47:10.387Z,24.99
2022-08-09T03:49:17.357Z,24.95
2022-08-09T03:51:57.535Z,24.94
2022-08-09T03:53:49.737Z,24.96
2022-08-09T03:55:52.955Z,24.95
2022-08-09T03:58:09.704Z,24.96
2022-08-09T04:00:18.440Z,24.90
2022-08-09T04:02:30.159Z,24.91
2022-08-09T04:04:38.656Z,24.92
2022-08-09T04:06:41.014Z,24.90
2022-08-09T04:08:50.757Z,24.81
2022-08-09T04:10:55.434Z,24.78
2022-08-09T04:13:01.191Z,24.79
2022-08-09T04:15:11.207Z,24.71
2022-08-09T04:17:13.846Z,24.73
2022-08-09T04:19:15.826Z,24.74
2022-08-09T04:21:38.526Z,24.66
2022-08-09T04:23:42.091Z,24.71
2022-08-09T04:25:56.382Z,24.74
2022-08-09T04:28:02.657Z,24.76
2022-08-09T04:30:06.195Z,24.86
2022-08-09T04:32:08.155Z,24.85
2022-08-09T04:34:10.562Z,24.92
2022-08-09T04:36:14.341Z,24.95
2022-08-09T04:38:21.194Z,24.99
2022-08-09T04:40:35.809Z,25.08
2022-08-09T04:42:38.759Z,24.99
2022-08-09T04:44:49.430Z,25.12
2022-08-09T04:46:59.296Z,25.17
2022-08-09T04:49:02.287Z,25.22
2022-08-09T04:51:04.231Z,25.29
2022-08-09T04:53:13.170Z,25.32
2022-08-09T04:55:15.517Z,25.40
2022-08-09T04:57:24.172Z,25.37
2022-08-09T04:59:27.095Z,25.41
2022-08-09T05:01:32.615Z,25.48
2022-08-09T05:03:43.324Z,25.58
2022-08-09T05:05:52.026Z,25.64
2022-08-09T05:07:54.517Z,25.56
2022-08-09T05:09:57.796Z,25.61
2022-08-09T05:12:05.004Z,25.67
2022-08-09T05:14:07.446Z,25.70
2022-08-09T05:16:10.975Z,25.78
2022-08-09T05:18:42.869Z,25.77
2022-08-09T05:20:38.905Z,25.82
2022-08-09T05:23:58.220Z,25.93
2022-08-09T05:25:04.272Z,25.87
2022-08-09T05:27:06.498Z,25.91
2022-08-09T05:29:17.579Z,25.90
2022-08-09T05:31:37.018Z,26.00
2022-08-09T05:33:45.288Z,26.08
2022-08-09T05:35:50.803Z,26.06
2022-08-09T05:37:52.895Z,26.15
2022-08-09T05:39:54.831Z,26.19
2022-08-09T05:42:01.763Z,26.14
2022-08-09T05:44:06.304Z,26.20
2022-08-09T05:46:08.183Z,26.37
2022-08-09T05:48:12.821Z,26.48
2022-08-09T05:50:25.347Z,26.64
2022-08-09T05:52:38.496Z,26.75
2022-08-09T05:54:40.717Z,26.89
2022-08-09T05:56:54.437Z,26.98
2022-08-09T05:59:00.383Z,27.06
2022-08-09T06:01:02.221Z,27.14
2022-08-09T06:03:10.578Z,27.22
2022-08-09T06:05:12.871Z,27.34
2022-08-09T06:07:21.432Z,27.33
2022-08-09T06:09:54.024Z,27.44
2022-08-09T06:11:56.892Z,27.57
2022-08-09T06:13:59.700Z,27.66
2022-08-09T06:16:04.952Z,27.68
2022-08-09T06:18:06.970Z,27.79
2022-08-09T06:20:13.226Z,27.91
2022-08-09T06:22:28.821Z,28.04
2022-08-09T06:24:34.505Z,28.20
2022-08-09T06:26:43.622Z,28.31
2022-08-09T06:28:47.250Z,28.52
2022-08-09T06:30:48.979Z,28.65
2022-08-09T06:33:00.409Z,28.79
2022-08-09T06:35:15.238Z,28.92
2022-08-09T06:37:17.128Z,29.03
2022-08-09T06:39:19.862Z,29.15
2022-08-09T06:41:22.436Z,29.24
2022-08-09T06:43:46.288Z,29.43
2022-08-09T06:46:04.754Z,29.56
2022-08-09T06:48:12.512Z,29.69
2022-08-09T06:50:19.239Z,29.66
2022-08-09T06:52:25.234Z,29.71
2022-08-09T06:54:27.291Z,29.85
2022-08-09T06:56:31.066Z,29.98
2022-08-09T07:00:47.692Z,30.08
2022-08-09T07:00:59.640Z,30.16
2022-08-09T07:03:05.998Z,30.13
2022-08-09T07:05:08.505Z,30.18
2022-08-09T07:07:12.083Z,30.18
2022-08-09T07:09:53.656Z,30.19
2022-08-09T07:11:54.743Z,30.22
2022-08-09T07:14:05.121Z,30.23
2022-08-09T07:16:43.270Z,30.24
2022-08-09T07:18:29.752Z,30.26
2022-08-09T07:20:33.263Z,30.47
2022-08-09T07:22:49.568Z,30.55
2022-08-09T07:24:55.441Z,30.64
2022-08-09T07:26:58.077Z,30.76
2022-08-09T07:29:11.955Z,30.85
2022-08-09T07:31:15.440Z,30.93
2022-08-09T07:33:17.925Z,30.95
2022-08-09T07:35:19.735Z,31.02
2022-08-09T07:37:22.057Z,31.14
2022-08-09T07:39:40.256Z,31.20
2022-08-09T07:41:43.833Z,31.24
2022-08-09T07:43:49.885Z,31.28
2022-08-09T07:46:02.008Z,31.42
2022-08-09T07:48:05.557Z,31.49
2022-08-09T07:50:09.298Z,31.52
2022-08-09T07:52:17.909Z,31.54
2022-08-09T07:54:28.225Z,31.61
2022-08-09T07:56:33.818Z,31.64
2022-08-09T07:58:35.995Z,31.55
2022-08-09T08:00:38.164Z,31.57
2022-08-09T08:02:59.249Z,31.70
2022-08-09T08:05:03.011Z,31.83
2022-08-09T08:08:44.385Z,32.00
2022-08-09T08:09:51.707Z,32.05
2022-08-09T08:12:24.094Z,32.02
2022-08-09T08:14:17.596Z,32.15
2022-08-09T08:16:31.876Z,32.28
2022-08-09T08:18:34.403Z,32.38
2022-08-09T08:20:38.911Z,32.37
2022-08-09T08:22:45.351Z,32.47
2022-08-09T08:24:55.679Z,32.54
2022-08-09T08:26:59.304Z,32.65
2022-08-09T08:29:01.101Z,32.71
2022-08-09T08:31:13.650Z,32.77
2022-08-09T08:33:23.833Z,32.83
2022-08-09T08:35:28.289Z,32.84
2022-08-09T08:37:41.189Z,32.84
2022-08-09T08:39:56.668Z,32.97
2022-08-09T08:41:59.078Z,33.02
2022-08-09T08:44:03.526Z,33.11
2022-08-09T08:46:32.309Z,33.08
2022-08-09T08:48:32.996Z,33.18
2022-08-09T08:50:35.307Z,33.26
2022-08-09T08:52:58.743Z,33.40
2022-08-09T08:55:03.699Z,33.52
2022-08-09T08:57:11.333Z,33.60
2022-08-09T08:59:19.027Z,33.68
2022-08-09T09:01:24.911Z,33.79
2022-08-09T09:03:37.883Z,33.91
2022-08-09T09:06:03.290Z,34.03
2022-08-09T09:08:04.064Z,34.02
2022-08-09T09:10:09.401Z,34.11
2022-08-09T09:12:16.697Z,34.17
2022-08-09T09:14:26.973Z,34.15
2022-08-09T09:16:34.455Z,34.10
2022-08-09T09:18:36.695Z,34.10
2022-08-09T09:20:38.946Z,34.18
2022-08-09T09:23:01.785Z,34.14
2022-08-09T09:26:04.239Z,34.26
2022-08-09T09:28:05.872Z,34.30
2022-08-09T09:32:15.897Z,34.31
2022-08-09T09:34:18.509Z,34.36
2022-08-09T09:36:21.973Z,34.38
2022-08-09T09:38:39.012Z,34.48
2022-08-09T09:40:46.319Z,34.53
2022-08-09T09:42:56.863Z,34.45
2022-08-09T09:45:01.242Z,34.52
2022-08-09T09:47:16.468Z,34.38
2022-08-09T09:49:32.003Z,34.33
2022-08-09T09:51:51.276Z,34.42
2022-08-09T09:54:20.326Z,34.55
2022-08-09T09:56:34.588Z,34.62
2022-08-09T09:58:49.128Z,34.60
2022-08-09T10:00:58.906Z,34.62
2022-08-09T10:03:11.742Z,34.65
2022-08-09T10:05:16.250Z,34.73
2022-08-09T10:07:29.953Z,34.75
2022-08-09T10:09:54.795Z,34.71
2022-08-09T10:12:11.984Z,34.81
2022-08-09T10:14:30.665Z,34.80
2022-08-09T10:16:58.232Z,34.82
2022-08-09T10:19:10.207Z,34.81
2022-08-09T10:21:12.063Z,34.88
2022-08-09T10:23:21.988Z,34.89
2022-08-09T10:25:24.608Z,34.85
2022-08-09T10:27:44.878Z,34.81
2022-08-09T10:30:28.421Z,34.75
2022-08-09T10:32:42.243Z,34.73
2022-08-09T10:34:47.001Z,34.78
2022-08-09T10:36:56.872Z,34.80
2022-08-09T10:39:00.171Z,34.85
2022-08-09T10:41:02.687Z,34.85
2022-08-09T10:43:08.133Z,34.84
2022-08-09T10:45:16.069Z,34.80
2022-08-09T10:48:16.936Z,34.69
2022-08-09T10:50:31.419Z,34.62
2022-08-09T10:52:52.500Z,34.64
2022-08-09T10:54:54.387Z,34.65
2022-08-09T10:57:11.079Z,34.63
2022-08-09T10:59:23.375Z,34.68
2022-08-09T11:03:15.302Z,34.80
2022-08-09T11:04:27.886Z,34.78
2022-08-09T11:06:33.357Z,34.74
2022-08-09T11:08:46.981Z,34.65
2022-08-09T11:10:56.033Z,34.53
2022-08-09T11:13:49.369Z,34.41
2022-08-09T11:15:50.990Z,34.45
2022-08-09T11:18:04.060Z,34.47
2022-08-09T11:20:20.205Z,34.51
2022-08-09T11:22:40.285Z,34.63
2022-08-09T11:25:08.175Z,34.71
2022-08-09T11:28:02.963Z,34.70
2022-08-09T11:30:32.090Z,34.69
2022-08-09T11:32:41.313Z,34.70
2022-08-09T11:34:51.576Z,34.66
2022-08-09T11:36:56.818Z,34.59
2022-08-09T11:39:01.966Z,34.53
2022-08-09T11:41:05.418Z,34.55
2022-08-09T11:43:08.060Z,34.63
2022-08-09T11:45:21.742Z,34.57
2022-08-09T11:47:23.716Z,34.67
2022-08-09T11:50:54.109Z,34.55
2022-08-09T11:53:03.321Z,34.67
2022-08-09T11:54:41.981Z,34.71
2022-08-09T11:56:48.083Z,34.81
2022-08-09T11:58:56.098Z,34.80
2022-08-09T12:01:00.198Z,34.77
2022-08-09T12:03:10.014Z,34.80
2022-08-09T12:05:37.238Z,34.75
2022-08-09T12:07:42.298Z,34.69
2022-08-09T12:09:50.970Z,34.75
2022-08-09T12:12:04.106Z,34.79
2022-08-09T12:14:36.665Z,34.88
2022-08-09T12:16:39.836Z,34.99
2022-08-09T12:18:53.836Z,34.95
2022-08-09T12:20:56.479Z,34.93
2022-08-09T12:23:02.591Z,34.84
2022-08-09T12:25:15.133Z,34.80
2022-08-09T12:28:58.634Z,34.91
2022-08-09T12:29:58.671Z,34.87
2022-08-09T12:32:11.659Z,34.92
2022-08-09T12:34:13.696Z,34.92
2022-08-09T12:36:31.239Z,34.87
2022-08-09T12:38:38.140Z,34.89
2022-08-09T12:40:45.802Z,34.89
2022-08-09T12:42:50.461Z,34.95
2022-08-09T12:44:54.569Z,34.95
2022-08-09T12:46:57.060Z,34.95
2022-08-09T12:48:59.095Z,34.96
2022-08-09T12:51:03.998Z,34.94
2022-08-09T12:53:18.335Z,34.92
2022-08-09T12:56:11.450Z,35.04
2022-08-09T12:57:49.243Z,35.27
2022-08-09T13:00:03.049Z,35.32
2022-08-09T13:02:09.266Z,35.33
2022-08-09T13:04:36.293Z,35.22
2022-08-09T13:06:42.123Z,35.22
2022-08-09T13:09:01.304Z,35.19
2022-08-09T13:11:23.315Z,35.09
2022-08-09T13:14:37.869Z,34.93
2022-08-09T13:16:08.101Z,34.87
2022-08-09T13:18:17.574Z,34.80
2022-08-09T13:20:37.899Z,34.29
2022-08-09T13:23:01.762Z,34.12
2022-08-09T13:25:19.623Z,33.94
2022-08-09T13:27:31.439Z,33.83
2022-08-09T13:30:02.781Z,33.42
2022-08-09T13:32:13.287Z,33.35
2022-08-09T13:34:20.245Z,33.02
2022-08-09T13:36:24.639Z,32.84
2022-08-09T13:38:56.734Z,32.60
2022-08-09T13:41:50.894Z,32.29
2022-08-09T13:43:22.554Z,32.22
2022-08-09T13:46:42.579Z,32.16
2022-08-09T13:47:59.889Z,31.85
2022-08-09T13:50:12.508Z,31.61
2022-08-09T13:52:14.777Z,31.40
2022-08-09T13:54:20.248Z,31.07
2022-08-09T13:56:28.130Z,30.95
2022-08-09T13:58:29.998Z,30.63
2022-08-09T14:00:37.936Z,30.41
2022-08-09T14:03:03.636Z,30.14
2022-08-09T14:05:12.858Z,29.86
2022-08-09T14:07:42.216Z,29.88
2022-08-09T14:09:44.183Z,29.69
2022-08-09T14:11:47.685Z,29.60
2022-08-09T14:14:23.613Z,28.87
2022-08-09T14:16:16.081Z,28.87
2022-08-09T14:18:19.820Z,28.91
2022-08-09T14:20:30.379Z,28.71
2022-08-09T14:22:33.014Z,28.70
2022-08-09T14:24:35.305Z,28.72
2022-08-09T14:26:37.900Z,28.79
2022-08-09T14:28:39.884Z,28.82
2022-08-09T14:30:42.504Z,28.88
2022-08-09T14:32:44.377Z,28.90
2022-08-09T14:34:46.243Z,28.66
2022-08-09T14:36:57.317Z,28.57
2022-08-09T14:39:03.382Z,28.64
2022-08-09T14:41:34.917Z,28.70
2022-08-09T14:43:46.895Z,28.92
2022-08-09T14:46:56.091Z,29.02
2022-08-09T14:48:14.458Z,29.14
2022-08-09T14:50:17.522Z,28.79
2022-08-09T14:52:19.426Z,28.72
2022-08-09T14:54:22.358Z,28.71
2022-08-09T14:56:26.789Z,28.65
2022-08-09T14:58:29.121Z,28.71
2022-08-09T15:00:36.259Z,28.77
2022-08-09T15:02:39.076Z,28.94
2022-08-09T15:04:42.074Z,29.00
2022-08-09T15:06:49.690Z,29.04
2022-08-09T15:08:56.509Z,29.16
2022-08-09T15:11:01.393Z,29.26
2022-08-09T15:13:08.730Z,29.14
2022-08-09T15:15:11.254Z,29.15
2022-08-09T15:17:15.741Z,29.14
2022-08-09T15:19:19.972Z,29.12
2022-08-09T15:21:57.974Z,28.92
2022-08-09T15:24:03.599Z,29.10
2022-08-09T15:26:09.124Z,29.13
2022-08-09T15:28:28.193Z,29.02
2022-08-09T15:31:00.390Z,28.85
2022-08-09T15:32:52.907Z,28.79
2022-08-09T15:34:55.432Z,28.69
2022-08-09T15:36:58.878Z,28.57
2022-08-09T15:39:00.971Z,28.29
2022-08-09T15:41:09.334Z,28.34
2022-08-09T15:43:13.251Z,28.26
2022-08-09T15:45:21.754Z,28.23
2022-08-09T15:47:31.907Z,27.87
2022-08-09T15:50:00.562Z,28.04
2022-08-09T15:52:08.150Z,27.67
2022-08-09T15:54:19.331Z,27.52
2022-08-09T15:56:29.254Z,27.52
2022-08-09T15:58:33.031Z,27.53
2022-08-09T16:00:34.890Z,27.57
2022-08-09T16:02:37.283Z,27.71
2022-08-09T16:04:39.356Z,27.78
2022-08-09T16:06:50.332Z,27.61
2022-08-09T16:08:52.552Z,27.49
2022-08-09T16:10:56.469Z,27.45
2022-08-09T16:12:59.018Z,27.51
2022-08-09T16:15:02.731Z,27.35
2022-08-09T16:17:04.745Z,27.35
2022-08-09T16:19:09.908Z,27.25
2022-08-09T16:21:11.722Z,27.25
2022-08-09T16:23:14.301Z,27.29
2022-08-09T16:25:36.877Z,27.33
2022-08-09T16:27:41.963Z,27.15
2022-08-09T16:29:49.956Z,26.93
2022-08-09T16:32:19.048Z,26.88
2022-08-09T16:34:20.198Z,26.70
2022-08-09T16:36:27.304Z,26.78
2022-08-09T16:38:29.645Z,26.71
2022-08-09T16:40:41.087Z,26.67
2022-08-09T16:42:45.287Z,26.76
2022-08-09T16:44:47.512Z,26.81
2022-08-09T16:46:55.017Z,26.89
2022-08-09T16:49:12.538Z,26.83
2022-08-09T16:51:19.767Z,26.87
2022-08-09T16:53:22.879Z,26.73
2022-08-09T16:55:31.536Z,26.67
2022-08-09T16:58:09.169Z,26.49
2022-08-09T17:00:13.987Z,26.49
2022-08-09T17:02:17.843Z,26.06
2022-08-09T17:04:28.283Z,26.07
2022-08-09T17:06:33.305Z,26.03
2022-08-09T17:08:44.993Z,25.84
2022-08-09T17:10:57.357Z,25.94
2022-08-09T17:12:59.727Z,25.78
2022-08-09T17:15:02.350Z,25.23
2022-08-09T17:17:27.322Z,25.18
2022-08-09T17:19:46.503Z,25.02
2022-08-09T17:21:54.521Z,24.86
2022-08-09T17:24:27.529Z,25.11
2022-08-09T17:26:31.670Z,25.26
2022-08-09T17:28:40.341Z,25.21
2022-08-09T17:30:47.547Z,25.25
2022-08-09T17:32:50.069Z,25.29
2022-08-09T17:35:01.593Z,25.27
2022-08-09T17:37:19.577Z,25.24
2022-08-09T17:39:24.903Z,25.30
2022-08-09T17:41:38.881Z,25.32
2022-08-09T17:43:42.196Z,25.27
2022-08-09T17:46:06.113Z,25.20
2022-08-09T17:48:07.382Z,24.91
2022-08-09T17:50:17.099Z,24.97
2022-08-09T17:52:32.528Z,24.85
2022-08-09T17:54:34.467Z,24.94
2022-08-09T17:56:37.556Z,24.98
2022-08-09T17:58:42.939Z,24.86
2022-08-09T18:00:47.958Z,24.82
2022-08-09T18:02:57.978Z,24.95
2022-08-09T18:05:00.461Z,24.97
2022-08-09T18:07:23.740Z,25.09
2022-08-09T18:09:40.158Z,24.92
2022-08-09T18:12:05.674Z,24.91
2022-08-09T18:14:13.357Z,24.94
2022-08-09T18:16:17.471Z,25.07
2022-08-09T18:18:32.725Z,24.87
2022-08-09T18:20:57.102Z,24.91
2022-08-09T18:22:56.657Z,24.97
2022-08-09T18:24:58.384Z,24.69
2022-08-09T18:27:01.085Z,24.87
2022-08-09T18:30:38.123Z,24.91
2022-08-09T18:31:51.517Z,24.86
2022-08-09T18:33:53.498Z,24.85
2022-08-09T18:36:00.175Z,24.94
2022-08-09T18:38:02.332Z,25.11
2022-08-09T18:40:04.966Z,25.25
2022-08-09T18:42:08.743Z,25.33
2022-08-09T18:44:14.000Z,25.37
2022-08-09T18:46:51.309Z,25.44
2022-08-09T18:48:37.641Z,25.54
2022-08-09T18:50:40.189Z,25.52
2022-08-09T18:52:44.025Z,25.47
2022-08-09T18:54:52.492Z,25.58
2022-08-09T18:56:55.323Z,25.59
2022-08-09T18:58:57.409Z,25.60
2022-08-09T19:01:00.317Z,25.72
2022-08-09T19:03:02.534Z,25.73
2022-08-09T19:05:19.693Z,25.71
2022-08-09T19:07:26.237Z,25.72
2022-08-09T19:10:13.039Z,25.77
2022-08-09T19:11:50.634Z,25.82
2022-08-09T19:13:54.603Z,25.94
2022-08-09T19:16:02.029Z,25.97
2022-08-09T19:18:16.909Z,25.96
2022-08-09T19:20:19.238Z,26.06
2022-08-09T19:22:24.638Z,26.04
2022-08-09T19:24:32.568Z,26.02
2022-08-09T19:26:41.824Z,26.05
2022-08-09T19:28:50.926Z,26.08
2022-08-09T19:30:54.901Z,26.11
2022-08-09T19:32:57.490Z,26.14
2022-08-09T19:35:01.014Z,26.15
2022-08-09T19:37:04.302Z,26.15
2022-08-09T19:39:06.349Z,26.13
2022-08-09T19:41:08.537Z,26.15
2022-08-09T19:43:40.029Z,26.18
2022-08-09T19:45:40.573Z,26.15
2022-08-09T19:47:44.769Z,26.11
2022-08-09T19:50:09.092Z,26.06
2022-08-09T19:52:08.654Z,26.09
2022-08-09T19:54:10.934Z,26.06
2022-08-09T19:56:15.817Z,26.04
2022-08-09T19:58:17.786Z,26.06
2022-08-09T20:00:31.719Z,26.02
2022-08-09T20:04:11.399Z,25.99
2022-08-09T20:04:57.712Z,25.95
2022-08-09T20:07:00.264Z,25.94
2022-08-09T20:09:06.019Z,25.87
2022-08-09T20:11:08.127Z,25.84
2022-08-09T20:13:10.698Z,25.82
2022-08-09T20:16:34.446Z,25.80
2022-08-09T20:17:41.344Z,25.79
2022-08-09T20:19:54.131Z,25.77
2022-08-09T20:21:59.925Z,25.74
2022-08-09T20:24:03.053Z,25.72
2022-08-09T20:26:06.852Z,25.71
2022-08-09T20:28:08.803Z,25.71
2022-08-09T20:30:14.920Z,25.64
2022-08-09T20:32:30.973Z,25.65
2022-08-09T20:34:35.465Z,25.61
2022-08-09T20:36:39.678Z,25.59
2022-08-09T20:39:28.387Z,25.52
2022-08-09T20:41:05.949Z,25.50
2022-08-09T20:43:18.667Z,25.45
2022-08-09T20:45:56.465Z,25.44
2022-08-09T20:47:48.805Z,25.40
2022-08-09T20:49:51.160Z,25.41
2022-08-09T20:51:54.351Z,25.40
2022-08-09T20:53:56.394Z,25.35
2022-08-09T20:56:02.608Z,25.33
2022-08-09T20:58:08.095Z,25.30
2022-08-09T21:00:31.810Z,25.31
2022-08-09T21:02:35.095Z,25.27
2022-08-09T21:05:54.686Z,25.23
2022-08-09T21:06:59.137Z,25.23
2022-08-09T21:09:14.558Z,25.21
2022-08-09T21:13:59.807Z,25.16
2022-08-09T21:16:02.095Z,25.16
2022-08-09T21:18:10.997Z,25.14
2022-08-09T21:20:23.076Z,25.12
2022-08-09T21:22:38.429Z,25.12
2022-08-09T21:25:00.018Z,25.01
2022-08-09T21:27:10.196Z,25.00
2022-08-09T21:29:23.924Z,24.97
2022-08-09T21:31:48.948Z,24.99
2022-08-09T21:33:52.479Z,24.96
2022-08-09T21:35:54.873Z,24.95
2022-08-09T21:38:02.779Z,24.97
2022-08-09T21:40:05.657Z,24.87
2022-08-09T21:42:12.971Z,24.90
2022-08-09T21:44:15.364Z,24.86
2022-08-09T21:46:35.449Z,24.85
2022-08-09T21:48:39.046Z,24.75
2022-08-09T21:50:49.656Z,24.77
2022-08-09T21:52:54.230Z,24.74
2022-08-09T21:54:59.613Z,24.65
2022-08-09T21:57:06.384Z,24.63
2022-08-09T21:59:27.348Z,24.66
2022-08-09T22:02:00.411Z,24.64
2022-08-09T22:04:03.740Z,24.57
2022-08-09T22:06:05.663Z,24.50
2022-08-09T22:08:13.257Z,24.50
2022-08-09T22:10:22.946Z,24.52
2022-08-09T22:12:31.259Z,24.43
2022-08-09T22:14:33.802Z,24.49
2022-08-09T22:16:37.453Z,24.49
2022-08-09T22:18:53.664Z,24.45
2022-08-09T22:20:56.844Z,24.39
2022-08-09T22:22:59.577Z,24.28
2022-08-09T22:26:04.459Z,24.22
2022-08-09T22:27:23.956Z,24.17
2022-08-09T22:29:34.511Z,24.09
2022-08-09T22:31:57.102Z,24.10
2022-08-09T22:33:59.650Z,24.05
2022-08-09T22:36:03.727Z,23.95
2022-08-09T22:38:07.677Z,24.01
2022-08-09T22:40:20.099Z,23.99
2022-08-09T22:42:23.388Z,23.85
2022-08-09T22:44:25.961Z,23.77
2022-08-09T22:48:13.370Z,23.77
2022-08-09T22:49:01.871Z,23.82
2022-08-09T22:51:17.877Z,23.84
2022-08-09T22:53:26.079Z,23.79
2022-08-09T22:56:30.654Z,23.82
2022-08-09T22:58:08.201Z,23.90
2022-08-09T23:00:12.037Z,23.89
2022-08-09T23:02:15.942Z,23.91
2022-08-09T23:04:22.501Z,23.87
2022-08-09T23:06:47.353Z,23.77
2022-08-09T23:08:50.791Z,23.82
2022-08-09T23:10:52.713Z,23.81
2022-08-09T23:12:54.561Z,23.87
2022-08-09T23:14:56.310Z,23.83
2022-08-09T23:16:58.244Z,23.83
2022-08-09T23:19:00.863Z,23.85
2022-08-09T23:21:02.842Z,23.87
2022-08-09T23:23:05.697Z,23.82
2022-08-09T23:25:08.107Z,23.83
2022-08-09T23:27:10.119Z,23.84
2022-08-09T23:29:14.050Z,23.75
2022-08-09T23:31:15.965Z,23.73
2022-08-09T23:33:17.778Z,23.77
2022-08-09T23:35:19.564Z,23.76
2022-08-09T23:37:25.452Z,23.74
2022-08-09T23:39:27.541Z,23.72
2022-08-09T23:41:29.983Z,23.72
2022-08-09T23:43:32.457Z,23.66
2022-08-09T23:45:37.803Z,23.66
2022-08-09T23:47:40.286Z,23.58
2022-08-09T23:49:42.552Z,23.64
2022-08-09T23:51:44.435Z,23.58
2022-08-09T23:53:47.415Z,23.50
2022-08-09T23:55:54.569Z,23.39
2022-08-09T23:58:09.404Z,23.36
